Strodes Mills, Pennsylvania
Current Conditions -  °F | °C
As of 5:15 AM on Wednesday 26 Nov 2014 (Local Time) from KUNV Reporting Station
Broken Clouds Broken Clouds  
Wind Chill: 32°   Ceiling: 12000
Heat Index: 32°   Visibility: 10mi
Dew Point: 27°   Wind: 3mph
Humidity: 84%   Direction: 10°N
Pressure: 30.13"   Gusts: NA
Location:  40.6073°N, 77.5812°W
Report Text: KUNV 261015Z AUTO 01003KT 10SM BKN120 00/M03 A3013 RMK AO2 T10021026
Loading
Personal Weather Stations






























Interactive Weather Map New forecast layout! Learn more

10-Day Weather Forecast

Advertisements
Track Severe Weather on mobile